createdAt,value
2019-01-13T00:04:23.359Z,6.39
2019-01-13T00:09:25.815Z,6.42
2019-01-13T00:14:28.357Z,6.49
2019-01-13T00:19:30.822Z,6.49
2019-01-13T00:24:33.311Z,6.52
2019-01-13T00:29:35.781Z,6.48
2019-01-13T00:34:38.278Z,6.46
2019-01-13T00:39:40.786Z,6.43
2019-01-13T00:44:43.889Z,6.41
2019-01-13T00:49:45.723Z,6.42
2019-01-13T00:54:48.202Z,6.47
2019-01-13T00:59:50.666Z,6.52
2019-01-13T01:04:53.118Z,6.58
2019-01-13T01:09:55.594Z,6.61
2019-01-13T01:14:58.053Z,6.66
2019-01-13T01:20:00.526Z,6.68
2019-01-13T01:25:02.992Z,6.72
2019-01-13T01:30:08.091Z,6.73
2019-01-13T01:35:11.453Z,6.76
2019-01-13T01:40:16.867Z,6.77
2019-01-13T01:45:19.321Z,6.81
2019-01-13T01:50:21.777Z,6.84
2019-01-13T01:55:24.231Z,6.86
2019-01-13T02:00:26.687Z,6.92
2019-01-13T02:05:29.139Z,6.89
2019-01-13T02:10:31.597Z,6.90
2019-01-13T02:15:34.054Z,6.91
2019-01-13T02:20:36.553Z,6.88
2019-01-13T02:25:38.998Z,6.90
2019-01-13T02:30:48.838Z,6.91
2019-01-13T02:35:43.933Z,6.90
2019-01-13T02:40:46.394Z,6.95
2019-01-13T02:45:48.850Z,6.95
2019-01-13T02:50:51.295Z,6.91
2019-01-13T02:55:53.825Z,6.95
2019-01-13T03:00:57.175Z,6.98
2019-01-13T03:05:58.692Z,7.01
2019-01-13T03:11:01.149Z,7.05
2019-01-13T03:16:03.601Z,7.06
2019-01-13T03:21:06.018Z,7.05
2019-01-13T03:26:08.486Z,7.08
2019-01-13T03:31:12.595Z,7.09
2019-01-13T03:36:13.414Z,7.12
2019-01-13T03:41:15.862Z,7.11
2019-01-13T03:46:18.324Z,7.12
2019-01-13T03:51:20.791Z,7.08
2019-01-13T03:56:23.255Z,7.05
2019-01-13T04:01:25.693Z,7.09
2019-01-13T04:06:28.146Z,7.14
2019-01-13T04:16:54.992Z,7.12
2019-01-13T04:21:57.448Z,7.20
2019-01-13T04:26:59.931Z,7.21
2019-01-13T04:32:02.405Z,7.23
2019-01-13T04:37:04.876Z,7.21
2019-01-13T04:42:07.327Z,7.17
2019-01-13T04:47:09.779Z,7.16
2019-01-13T04:52:12.237Z,7.18
2019-01-13T04:57:14.718Z,7.19
2019-01-13T05:02:17.200Z,7.16
2019-01-13T05:07:19.670Z,7.17
2019-01-13T05:12:22.144Z,7.17
2019-01-13T05:17:24.618Z,7.22
2019-01-13T05:22:27.096Z,7.29
2019-01-13T05:27:29.554Z,7.31
2019-01-13T05:32:32.052Z,7.32
2019-01-13T05:37:34.505Z,7.36
2019-01-13T05:42:37.030Z,7.30
2019-01-13T05:47:39.427Z,7.32
2019-01-13T05:52:41.877Z,7.36
2019-01-13T05:57:44.338Z,7.35
2019-01-13T06:02:46.799Z,7.34
2019-01-13T06:07:49.259Z,7.37
2019-01-13T06:12:51.728Z,7.41
2019-01-13T06:17:54.195Z,7.47
2019-01-13T06:22:56.651Z,7.51
2019-01-13T06:27:59.104Z,7.53
2019-01-13T06:33:01.567Z,7.57
2019-01-13T06:38:04.018Z,7.57
2019-01-13T06:43:06.497Z,7.59
2019-01-13T06:48:08.959Z,7.59
2019-01-13T06:53:11.430Z,7.59
2019-01-13T06:58:13.909Z,7.59
2019-01-13T07:03:16.355Z,7.65
2019-01-13T07:08:18.827Z,7.64
2019-01-13T07:13:21.339Z,7.67
2019-01-13T07:18:23.757Z,7.70
2019-01-13T07:23:26.217Z,7.71
2019-01-13T07:28:28.695Z,7.73
2019-01-13T07:33:31.175Z,7.78
2019-01-13T07:38:33.654Z,7.82
2019-01-13T07:43:36.117Z,7.81
2019-01-13T07:48:38.580Z,7.85
2019-01-13T07:53:41.040Z,7.84
2019-01-13T07:58:43.504Z,7.86
2019-01-13T08:03:45.952Z,7.95
2019-01-13T08:08:48.422Z,7.98
2019-01-13T08:13:50.885Z,8.00
2019-01-13T08:18:53.335Z,8.02
2019-01-13T08:23:55.813Z,7.98
2019-01-13T08:28:58.273Z,7.95
2019-01-13T08:34:00.879Z,7.96
2019-01-13T08:39:03.345Z,7.99
2019-01-13T08:44:05.814Z,8.02
2019-01-13T08:49:08.286Z,8.00
2019-01-13T08:54:10.775Z,8.03
2019-01-13T08:59:13.271Z,8.00
2019-01-13T09:04:15.751Z,8.04
2019-01-13T09:09:18.216Z,8.04
2019-01-13T09:14:20.701Z,7.97
2019-01-13T09:19:23.144Z,7.98
2019-01-13T09:24:25.627Z,7.98
2019-01-13T09:29:28.096Z,7.95
2019-01-13T09:34:30.556Z,7.91
2019-01-13T09:39:33.024Z,7.88
2019-01-13T09:44:35.482Z,7.89
2019-01-13T09:49:37.935Z,7.90
2019-01-13T09:54:40.398Z,7.91
2019-01-13T09:59:43.026Z,7.95
2019-01-13T10:04:45.503Z,7.97
2019-01-13T10:09:47.952Z,8.06
2019-01-13T10:14:50.408Z,8.20
2019-01-13T10:19:52.858Z,8.19
2019-01-13T10:24:55.338Z,8.29
2019-01-13T10:29:57.784Z,8.31
2019-01-13T10:35:00.332Z,8.31
2019-01-13T10:40:02.703Z,8.34
2019-01-13T10:45:05.161Z,8.39
2019-01-13T10:50:07.627Z,8.35
2019-01-13T10:55:10.086Z,8.35
2019-01-13T11:00:18.546Z,8.40
2019-01-13T11:05:20.999Z,8.45
2019-01-13T11:10:23.480Z,8.49
2019-01-13T11:15:25.914Z,8.56
2019-01-13T11:20:34.422Z,8.54
2019-01-13T11:25:36.874Z,8.60
2019-01-13T11:30:39.320Z,8.68
2019-01-13T11:35:41.796Z,8.61
2019-01-13T11:40:44.253Z,8.63
2019-01-13T11:45:46.746Z,8.68
2019-01-13T11:50:49.196Z,8.63
2019-01-13T11:55:51.656Z,8.65
2019-01-13T12:00:54.114Z,8.68
2019-01-13T12:05:56.612Z,8.66
2019-01-13T12:10:59.109Z,8.70
2019-01-13T12:16:01.578Z,8.79
2019-01-13T12:21:04.037Z,8.77
2019-01-13T12:26:06.544Z,8.79
2019-01-13T12:31:09.010Z,8.80
2019-01-13T12:36:11.455Z,8.81
2019-01-13T12:41:14.004Z,8.85
2019-01-13T12:46:16.410Z,8.84
2019-01-13T12:51:18.833Z,8.81
2019-01-13T12:56:21.328Z,8.83
2019-01-13T13:01:23.792Z,8.87
2019-01-13T13:06:26.289Z,8.87
2019-01-13T13:11:28.745Z,8.94
2019-01-13T13:16:31.199Z,9.02
2019-01-13T13:21:33.677Z,9.15
2019-01-13T13:26:36.152Z,9.14
2019-01-13T13:31:38.590Z,9.16
2019-01-13T13:36:41.146Z,9.21
2019-01-13T13:41:43.859Z,9.20
2019-01-13T13:46:46.084Z,9.16
2019-01-13T13:51:48.558Z,9.12
2019-01-13T13:56:51.174Z,9.07
2019-01-13T14:01:53.625Z,9.13
2019-01-13T14:06:56.066Z,9.12
2019-01-13T14:11:58.543Z,9.07
2019-01-13T14:17:01.057Z,9.16
2019-01-13T14:22:03.466Z,9.14
2019-01-13T14:27:05.946Z,9.12
2019-01-13T14:32:08.408Z,9.12
2019-01-13T14:37:10.890Z,9.14
2019-01-13T14:42:13.352Z,9.15
2019-01-13T14:47:15.800Z,9.09
2019-01-13T14:52:18.283Z,9.11
2019-01-13T14:57:20.726Z,9.11
2019-01-13T15:02:23.178Z,9.11
2019-01-13T15:07:25.655Z,9.15
2019-01-13T15:12:28.101Z,9.18
2019-01-13T15:17:30.570Z,9.23
2019-01-13T15:22:33.020Z,9.26
2019-01-13T15:27:35.868Z,9.30
2019-01-13T15:32:38.321Z,9.31
2019-01-13T15:37:40.781Z,9.33
2019-01-13T15:42:43.246Z,9.38
2019-01-13T15:47:45.759Z,9.40
2019-01-13T15:52:48.222Z,9.41
2019-01-13T15:57:50.692Z,9.44
2019-01-13T16:02:53.167Z,9.47
2019-01-13T16:07:55.642Z,9.49
2019-01-13T16:12:58.140Z,9.45
2019-01-13T16:18:00.605Z,9.45
2019-01-13T16:23:03.089Z,9.49
2019-01-13T16:28:05.579Z,9.50
2019-01-13T16:33:08.043Z,9.54
2019-01-13T16:38:10.520Z,9.56
2019-01-13T16:43:12.984Z,9.63
2019-01-13T16:48:15.469Z,9.67
2019-01-13T16:53:17.930Z,9.68
2019-01-13T16:58:20.416Z,9.67
2019-01-13T17:03:22.869Z,9.64
2019-01-13T17:08:25.351Z,9.64
2019-01-13T17:13:27.817Z,9.67
2019-01-13T17:18:30.289Z,9.70
2019-01-13T17:23:32.765Z,9.70
2019-01-13T17:28:35.258Z,9.67
2019-01-13T17:33:37.758Z,9.67
2019-01-13T17:38:40.234Z,9.77
2019-01-13T17:43:42.708Z,9.74
2019-01-13T17:48:45.203Z,9.76
2019-01-13T17:53:47.675Z,9.77
2019-01-13T17:58:50.168Z,9.80
2019-01-13T18:03:52.635Z,9.81
2019-01-13T18:08:55.075Z,9.81
2019-01-13T18:13:57.544Z,9.87
2019-01-13T18:19:00.013Z,9.89
2019-01-13T18:24:02.464Z,9.96
2019-01-13T18:29:04.932Z,9.96
2019-01-13T18:34:07.402Z,9.96
2019-01-13T18:39:09.869Z,10.00
2019-01-13T18:44:12.347Z,10.01
2019-01-13T18:49:14.815Z,10.03
2019-01-13T18:54:17.289Z,10.00
2019-01-13T18:59:19.813Z,10.05
2019-01-13T19:04:22.294Z,10.05
2019-01-13T19:09:24.760Z,10.05
2019-01-13T19:14:27.224Z,10.11
2019-01-13T19:19:29.730Z,10.12
2019-01-13T19:24:32.188Z,10.14
2019-01-13T19:29:34.631Z,10.13
2019-01-13T19:34:37.091Z,10.15
2019-01-13T19:39:39.554Z,10.15
2019-01-13T19:44:42.033Z,10.15
2019-01-13T19:49:44.536Z,10.16
2019-01-13T19:54:47.013Z,10.13
2019-01-13T19:59:49.474Z,10.12
2019-01-13T20:04:51.939Z,10.12
2019-01-13T20:09:54.402Z,10.05
2019-01-13T20:14:56.840Z,9.97
2019-01-13T20:19:59.355Z,9.96
2019-01-13T20:25:01.832Z,9.94
2019-01-13T20:30:04.282Z,9.83
2019-01-13T20:35:06.751Z,9.75
2019-01-13T20:40:09.205Z,9.53
2019-01-13T20:45:17.456Z,9.35
2019-01-13T20:50:19.912Z,9.28
2019-01-13T20:55:22.383Z,9.16
2019-01-13T21:00:24.836Z,9.09
2019-01-13T21:05:27.330Z,9.03
2019-01-13T21:10:29.823Z,9.02
2019-01-13T21:15:32.299Z,9.14
2019-01-13T21:20:34.772Z,9.30
2019-01-13T21:25:37.253Z,9.39
2019-01-13T21:30:39.772Z,9.48
2019-01-13T21:35:42.244Z,9.52
2019-01-13T21:40:44.723Z,9.54
2019-01-13T21:45:47.184Z,9.55
2019-01-13T21:50:49.649Z,9.61
2019-01-13T21:55:52.099Z,9.64
2019-01-13T22:00:54.576Z,9.64
2019-01-13T22:05:57.291Z,9.66
2019-01-13T22:10:59.745Z,9.62
2019-01-13T22:16:02.197Z,9.58
2019-01-13T22:21:04.650Z,9.53
2019-01-13T22:26:07.104Z,9.53
2019-01-13T22:31:09.565Z,9.50
2019-01-13T22:36:12.020Z,9.39
2019-01-13T22:41:14.625Z,9.37
2019-01-13T22:46:17.077Z,9.31
2019-01-13T22:51:19.547Z,9.25
2019-01-13T22:56:22.003Z,9.18
2019-01-13T23:01:24.452Z,9.04
2019-01-13T23:06:26.911Z,8.92
2019-01-13T23:11:29.369Z,8.82
2019-01-13T23:16:31.832Z,8.79
2019-01-13T23:21:34.282Z,8.61
2019-01-13T23:26:36.751Z,8.44
2019-01-13T23:31:39.195Z,8.30
2019-01-13T23:36:41.651Z,8.14
2019-01-13T23:41:44.098Z,8.15
2019-01-13T23:46:46.555Z,8.05
2019-01-13T23:51:49.012Z,7.97
2019-01-13T23:56:51.830Z,7.87
